createdAt,value
2018-09-03T00:02:04.953Z,92.50
2018-09-03T00:04:33.275Z,92.70
2018-09-03T00:07:01.575Z,92.70
2018-09-03T00:09:34.034Z,92.60
2018-09-03T00:12:02.326Z,92.80
2018-09-03T00:14:30.575Z,92.50
2018-09-03T00:16:58.859Z,92.60
2018-09-03T00:19:27.138Z,92.70
2018-09-03T00:21:55.359Z,92.70
2018-09-03T00:24:23.608Z,92.70
2018-09-03T00:26:51.874Z,92.80
2018-09-03T00:29:20.127Z,92.90
2018-09-03T00:31:53.797Z,93.10
2018-09-03T00:34:27.453Z,93.10
2018-09-03T00:37:01.143Z,93.00
2018-09-03T00:39:34.812Z,92.70
2018-09-03T00:42:08.613Z,92.70
2018-09-03T00:44:42.251Z,92.70
2018-09-03T00:47:11.477Z,92.70
2018-09-03T00:49:39.864Z,92.70
2018-09-03T00:54:37.036Z,92.70
2018-09-03T00:57:05.249Z,93.00
2018-09-03T00:59:33.525Z,92.90
2018-09-03T01:02:01.763Z,92.90
2018-09-03T01:04:30.083Z,92.90
2018-09-03T01:06:58.431Z,92.80
2018-09-03T01:09:26.645Z,92.70
2018-09-03T01:11:54.913Z,92.60
2018-09-03T01:14:23.219Z,92.60
2018-09-03T01:16:51.465Z,92.60
2018-09-03T01:19:19.731Z,92.70
2018-09-03T01:21:48.007Z,92.60
2018-09-03T01:24:16.202Z,92.20
2018-09-03T01:26:44.423Z,92.10
2018-09-03T01:29:12.639Z,92.30
2018-09-03T01:31:40.886Z,92.20
2018-09-03T01:34:15.955Z,92.00
2018-09-03T01:36:44.214Z,92.00
2018-09-03T01:39:12.527Z,91.80
2018-09-03T01:41:40.795Z,91.80
2018-09-03T01:44:09.077Z,91.60
2018-09-03T01:46:37.300Z,93.10
2018-09-03T01:49:05.535Z,92.10
2018-09-03T01:51:33.781Z,92.00
2018-09-03T01:54:02.096Z,92.40
2018-09-03T01:56:30.326Z,92.40
2018-09-03T01:58:58.571Z,92.40
2018-09-03T02:01:26.882Z,92.40
2018-09-03T02:03:55.115Z,92.40
2018-09-03T02:06:23.597Z,92.20
2018-09-03T02:08:51.835Z,91.90
2018-09-03T02:11:20.076Z,91.80
2018-09-03T02:13:48.376Z,91.30
2018-09-03T02:16:16.646Z,91.60
2018-09-03T02:18:44.922Z,91.70
2018-09-03T02:21:13.159Z,91.80
2018-09-03T02:23:41.388Z,91.90
2018-09-03T02:26:09.607Z,91.90
2018-09-03T02:28:37.921Z,92.30
2018-09-03T02:31:06.174Z,92.20
2018-09-03T02:33:34.458Z,92.20
2018-09-03T02:36:02.715Z,92.30
2018-09-03T02:38:30.999Z,92.50
2018-09-03T02:40:59.292Z,92.90
2018-09-03T02:43:27.493Z,93.00
2018-09-03T02:45:55.724Z,94.20
2018-09-03T02:48:23.906Z,93.00
2018-09-03T02:50:52.096Z,92.90
2018-09-03T02:53:20.360Z,92.60
2018-09-03T02:58:16.620Z,92.30
2018-09-03T03:00:44.811Z,92.70
2018-09-03T03:03:13.060Z,92.30
2018-09-03T03:05:41.278Z,92.30
2018-09-03T03:08:09.510Z,92.60
2018-09-03T03:10:37.714Z,92.80
2018-09-03T03:13:06.032Z,92.70
2018-09-03T03:15:34.347Z,92.80
2018-09-03T03:18:02.595Z,92.70
2018-09-03T03:20:30.871Z,92.70
2018-09-03T03:22:59.160Z,92.40
2018-09-03T03:25:27.366Z,92.50
2018-09-03T03:27:55.608Z,92.60
2018-09-03T03:30:23.808Z,92.70
2018-09-03T03:32:52.082Z,92.70
2018-09-03T03:35:20.276Z,92.70
2018-09-03T03:37:49.271Z,92.90
2018-09-03T03:40:18.489Z,92.90
2018-09-03T03:42:46.709Z,92.90
2018-09-03T03:45:14.905Z,92.90
2018-09-03T03:47:43.115Z,92.60
2018-09-03T03:50:11.403Z,94.00
2018-09-03T03:52:39.599Z,93.30
2018-09-03T03:55:08.258Z,92.50
2018-09-03T03:57:37.018Z,92.50
2018-09-03T04:00:05.345Z,92.70
2018-09-03T04:02:33.546Z,92.70
2018-09-03T04:05:01.747Z,92.70
2018-09-03T04:07:29.947Z,92.80
2018-09-03T04:09:58.151Z,92.90
2018-09-03T04:12:26.407Z,92.90
2018-09-03T04:14:54.623Z,93.00
2018-09-03T04:17:22.873Z,93.00
2018-09-03T04:19:57.680Z,93.10
2018-09-03T04:22:25.883Z,93.10
2018-09-03T04:24:54.078Z,93.00
2018-09-03T04:27:22.320Z,93.00
2018-09-03T04:29:50.543Z,93.10
2018-09-03T04:32:18.765Z,93.30
2018-09-03T04:34:46.974Z,93.00
2018-09-03T04:37:15.195Z,93.00
2018-09-03T04:39:43.455Z,93.00
2018-09-03T04:42:11.692Z,93.00
2018-09-03T04:44:39.976Z,93.00
2018-09-03T04:47:08.195Z,93.00
2018-09-03T04:49:36.850Z,93.00
2018-09-03T04:52:05.109Z,92.80
2018-09-03T04:54:33.462Z,94.40
2018-09-03T04:57:01.879Z,93.40
2018-09-03T04:59:30.179Z,97.00
2018-09-03T05:01:58.421Z,92.90
2018-09-03T05:04:26.645Z,92.60
2018-09-03T05:06:54.854Z,93.00
2018-09-03T05:09:23.158Z,93.10
2018-09-03T05:11:51.412Z,93.10
2018-09-03T05:14:19.674Z,92.90
2018-09-03T05:16:47.967Z,93.00
2018-09-03T05:19:16.242Z,93.10
2018-09-03T05:21:44.479Z,93.20
2018-09-03T05:24:12.781Z,93.60
2018-09-03T05:26:41.028Z,93.70
2018-09-03T05:29:09.226Z,94.00
2018-09-03T05:31:37.409Z,94.00
2018-09-03T05:34:12.340Z,94.00
2018-09-03T05:36:40.657Z,94.00
2018-09-03T05:39:10.670Z,94.10
2018-09-03T05:41:38.892Z,94.10
2018-09-03T05:44:07.584Z,94.10
2018-09-03T05:46:36.326Z,94.20
2018-09-03T05:49:04.583Z,94.10
2018-09-03T05:51:32.792Z,94.10
2018-09-03T05:54:00.974Z,93.80
2018-09-03T05:56:29.247Z,93.70
2018-09-03T05:58:57.466Z,93.20
2018-09-03T06:01:25.735Z,93.20
2018-09-03T06:03:53.934Z,93.30
2018-09-03T06:11:18.172Z,93.40
2018-09-03T06:13:46.371Z,93.60
2018-09-03T06:16:14.579Z,93.80
2018-09-03T06:18:42.785Z,93.70
2018-09-03T06:21:10.973Z,94.00
2018-09-03T06:23:39.178Z,93.70
2018-09-03T06:26:07.400Z,93.70
2018-09-03T06:28:35.627Z,93.20
2018-09-03T06:31:04.159Z,93.30
2018-09-03T06:33:32.380Z,93.40
2018-09-03T06:36:00.845Z,93.30
2018-09-03T06:38:29.046Z,93.20
2018-09-03T06:40:57.246Z,93.20
2018-09-03T06:43:25.531Z,93.20
2018-09-03T06:45:53.773Z,93.20
2018-09-03T06:48:21.953Z,93.40
2018-09-03T06:50:50.213Z,93.00
2018-09-03T06:53:18.511Z,92.90
2018-09-03T06:55:46.774Z,92.70
2018-09-03T06:58:14.962Z,92.50
2018-09-03T07:00:43.190Z,92.20
2018-09-03T07:03:11.392Z,92.20
2018-09-03T07:05:39.587Z,92.20
2018-09-03T07:08:07.776Z,91.70
2018-09-03T07:10:36.000Z,92.00
2018-09-03T07:13:05.861Z,91.30
2018-09-03T07:15:34.190Z,91.00
2018-09-03T07:18:02.626Z,91.10
2018-09-03T07:20:30.847Z,91.00
2018-09-03T07:22:59.207Z,91.20
2018-09-03T07:25:27.407Z,90.30
2018-09-03T07:27:55.656Z,90.00
2018-09-03T07:30:23.967Z,89.20
2018-09-03T07:32:52.179Z,88.80
2018-09-03T07:35:20.380Z,88.50
2018-09-03T07:37:48.563Z,88.00
2018-09-03T07:40:16.760Z,87.40
2018-09-03T07:42:44.952Z,86.00
2018-09-03T07:45:13.196Z,85.50
2018-09-03T07:47:41.532Z,86.60
2018-09-03T07:50:09.844Z,86.70
2018-09-03T07:52:38.052Z,86.90
2018-09-03T07:55:06.302Z,86.20
2018-09-03T07:57:34.418Z,85.00
2018-09-03T08:00:02.620Z,85.00
2018-09-03T08:02:30.829Z,84.80
2018-09-03T08:04:59.123Z,85.60
2018-09-03T08:07:27.381Z,85.00
2018-09-03T08:09:55.540Z,85.10
2018-09-03T08:12:23.739Z,84.70
2018-09-03T08:19:47.863Z,82.80
2018-09-03T08:22:16.063Z,83.60
2018-09-03T08:24:44.330Z,84.30
2018-09-03T08:27:12.521Z,85.90
2018-09-03T08:29:40.850Z,83.90
2018-09-03T08:32:09.057Z,82.90
2018-09-03T08:34:37.302Z,82.50
2018-09-03T08:37:05.567Z,82.40
2018-09-03T08:39:33.754Z,80.90
2018-09-03T08:42:02.009Z,81.80
2018-09-03T08:44:30.199Z,79.10
2018-09-03T08:46:58.395Z,79.30
2018-09-03T08:49:26.652Z,79.70
2018-09-03T08:51:54.850Z,81.20
2018-09-03T08:54:23.067Z,81.20
2018-09-03T08:56:51.292Z,81.20
2018-09-03T08:59:19.508Z,82.60
2018-09-03T09:01:47.708Z,78.60
2018-09-03T09:04:15.912Z,77.10
2018-09-03T09:06:44.091Z,74.20
2018-09-03T09:09:12.271Z,75.00
2018-09-03T09:11:40.489Z,71.90
2018-09-03T09:14:08.702Z,74.30
2018-09-03T09:16:36.946Z,74.90
2018-09-03T09:19:05.210Z,76.80
2018-09-03T09:24:01.334Z,72.60
2018-09-03T09:26:29.701Z,76.10
2018-09-03T09:28:57.908Z,74.50
2018-09-03T09:31:26.124Z,75.80
2018-09-03T09:33:54.348Z,77.10
2018-09-03T09:36:22.548Z,74.70
2018-09-03T09:38:50.751Z,73.80
2018-09-03T09:41:18.955Z,75.50
2018-09-03T09:43:47.183Z,75.00
2018-09-03T09:46:15.474Z,73.50
2018-09-03T09:48:43.675Z,75.40
2018-09-03T09:51:11.889Z,75.10
2018-09-03T09:53:40.071Z,73.50
2018-09-03T09:56:08.263Z,74.10
2018-09-03T09:58:36.518Z,75.30
2018-09-03T10:01:10.228Z,74.20
2018-09-03T10:03:38.472Z,75.30
2018-09-03T10:08:34.719Z,71.50
2018-09-03T10:11:03.263Z,73.90
2018-09-03T10:13:31.482Z,73.00
2018-09-03T10:15:59.690Z,74.80
2018-09-03T10:22:20.443Z,73.30
2018-09-03T10:24:48.681Z,74.60
2018-09-03T10:27:16.885Z,73.20
2018-09-03T10:29:45.117Z,73.00
2018-09-03T10:32:13.344Z,73.30
2018-09-03T10:34:42.630Z,71.60
2018-09-03T10:37:10.865Z,72.20
2018-09-03T10:39:39.096Z,74.40
2018-09-03T10:42:07.306Z,72.90
2018-09-03T10:44:35.548Z,77.80
2018-09-03T10:47:03.829Z,71.70
2018-09-03T10:49:32.005Z,72.00
2018-09-03T10:52:01.251Z,70.80
2018-09-03T10:54:29.443Z,73.10
2018-09-03T10:56:57.689Z,73.90
2018-09-03T11:01:53.859Z,73.20
2018-09-03T11:06:49.982Z,72.20
2018-09-03T11:09:18.191Z,71.90
2018-09-03T11:11:46.392Z,70.80
2018-09-03T11:14:14.704Z,70.00
2018-09-03T11:16:42.869Z,69.00
2018-09-03T11:19:11.046Z,70.20
2018-09-03T11:21:39.361Z,69.00
2018-09-03T11:24:07.438Z,69.20
2018-09-03T11:26:35.636Z,70.70
2018-09-03T11:29:03.822Z,72.90
2018-09-03T11:31:32.025Z,72.50
2018-09-03T11:34:00.255Z,69.40
2018-09-03T11:36:28.464Z,70.40
2018-09-03T11:38:56.720Z,69.60
2018-09-03T11:41:24.915Z,68.90
2018-09-03T11:43:53.127Z,68.60
2018-09-03T11:46:21.331Z,66.70
2018-09-03T11:48:49.540Z,66.40
2018-09-03T11:51:17.723Z,67.10
2018-09-03T11:53:45.944Z,68.40
2018-09-03T11:58:42.088Z,68.90
2018-09-03T12:01:10.283Z,70.40
2018-09-03T12:03:38.476Z,70.00
2018-09-03T12:06:06.671Z,70.80
2018-09-03T12:08:34.891Z,69.40
2018-09-03T12:11:03.235Z,70.20
2018-09-03T12:13:31.460Z,65.80
2018-09-03T12:16:14.185Z,65.60
2018-09-03T12:18:43.236Z,63.70
2018-09-03T12:21:12.571Z,65.40
2018-09-03T12:23:41.429Z,63.80
2018-09-03T12:26:09.903Z,65.60
2018-09-03T12:28:38.184Z,66.40
2018-09-03T12:31:06.662Z,68.00
2018-09-03T12:33:35.960Z,65.60
2018-09-03T12:36:04.863Z,65.70
2018-09-03T12:38:33.436Z,66.70
2018-09-03T12:41:01.643Z,64.20
2018-09-03T12:43:29.860Z,62.40
2018-09-03T12:46:01.210Z,66.50
2018-09-03T12:48:29.919Z,64.80
2018-09-03T12:51:00.041Z,64.10
2018-09-03T12:53:28.424Z,66.10
2018-09-03T12:55:56.651Z,66.00
2018-09-03T12:58:24.876Z,65.90
2018-09-03T13:00:53.152Z,64.60
2018-09-03T13:03:21.333Z,65.50
2018-09-03T13:05:49.626Z,62.60
2018-09-03T13:08:17.826Z,63.20
2018-09-03T13:10:46.027Z,64.70
2018-09-03T13:13:14.247Z,64.30
2018-09-03T13:15:42.476Z,64.90
2018-09-03T13:18:10.660Z,64.30
2018-09-03T13:20:38.843Z,64.40
2018-09-03T13:23:07.051Z,64.30
2018-09-03T13:25:35.243Z,64.90
2018-09-03T13:28:03.516Z,63.70
2018-09-03T13:30:31.766Z,61.80
2018-09-03T13:32:59.964Z,59.60
2018-09-03T13:35:28.181Z,59.40
2018-09-03T13:37:56.397Z,59.80
2018-09-03T13:40:24.588Z,60.10
2018-09-03T13:42:52.781Z,60.20
2018-09-03T13:45:20.987Z,59.70
2018-09-03T13:47:49.185Z,61.00
2018-09-03T13:50:17.445Z,63.10
2018-09-03T13:52:45.661Z,59.50
2018-09-03T13:55:13.931Z,59.20
2018-09-03T13:57:42.063Z,60.40
2018-09-03T14:00:10.759Z,63.10
2018-09-03T14:02:38.994Z,61.90
2018-09-03T14:05:07.259Z,62.80
2018-09-03T14:07:35.476Z,65.80
2018-09-03T14:10:03.758Z,64.80
2018-09-03T14:12:43.930Z,62.50
2018-09-03T14:15:12.211Z,63.30
2018-09-03T14:17:40.452Z,63.80
2018-09-03T14:20:08.708Z,63.10
2018-09-03T14:22:36.938Z,64.40
2018-09-03T14:25:05.153Z,62.70
2018-09-03T14:27:33.396Z,62.70
2018-09-03T14:30:01.619Z,62.10
2018-09-03T14:32:29.847Z,61.80
2018-09-03T14:34:58.038Z,62.30
2018-09-03T14:37:26.283Z,59.90
2018-09-03T14:39:54.487Z,60.30
2018-09-03T14:42:22.721Z,61.40
2018-09-03T14:44:50.906Z,61.90
2018-09-03T14:47:19.094Z,61.90
2018-09-03T14:49:47.352Z,60.80
2018-09-03T14:52:15.555Z,60.70
2018-09-03T14:54:43.747Z,62.70
2018-09-03T14:57:11.957Z,64.50
2018-09-03T14:59:40.512Z,63.30
2018-09-03T15:02:08.755Z,60.20
2018-09-03T15:04:37.088Z,60.70
2018-09-03T15:07:05.744Z,62.00
2018-09-03T15:09:33.950Z,60.60
2018-09-03T15:16:58.092Z,60.20
2018-09-03T15:19:26.293Z,60.60
2018-09-03T15:21:54.510Z,59.60
2018-09-03T15:24:22.717Z,61.80
2018-09-03T15:26:50.972Z,61.60
2018-09-03T15:29:19.269Z,60.70
2018-09-03T15:31:47.574Z,60.10
2018-09-03T15:34:15.755Z,60.40
2018-09-03T15:36:44.086Z,62.20
2018-09-03T15:39:13.043Z,60.80
2018-09-03T15:41:41.512Z,61.90
2018-09-03T15:44:09.695Z,62.40
2018-09-03T15:46:37.892Z,62.10
2018-09-03T15:49:06.123Z,61.70
2018-09-03T15:51:34.370Z,61.20
2018-09-03T15:54:02.655Z,61.10
2018-09-03T15:56:30.796Z,61.00
2018-09-03T15:58:58.997Z,61.70
2018-09-03T16:01:27.255Z,62.70
2018-09-03T16:03:55.695Z,62.80
2018-09-03T16:06:23.900Z,62.40
2018-09-03T16:08:52.234Z,61.90
2018-09-03T16:16:16.623Z,64.60
2018-09-03T16:18:45.149Z,65.30
2018-09-03T16:21:13.364Z,65.50
2018-09-03T16:23:41.647Z,66.20
2018-09-03T16:26:09.835Z,65.40
2018-09-03T16:28:38.014Z,64.40
2018-09-03T16:31:06.235Z,65.30
2018-09-03T16:33:34.439Z,66.50
2018-09-03T16:36:02.769Z,66.50
2018-09-03T16:38:30.979Z,67.60
2018-09-03T16:40:59.234Z,68.30
2018-09-03T16:43:27.408Z,69.20
2018-09-03T16:45:55.613Z,69.90
2018-09-03T16:48:23.870Z,68.90
2018-09-03T16:50:52.162Z,68.30
2018-09-03T16:53:20.442Z,67.50
2018-09-03T16:55:48.721Z,67.60
2018-09-03T16:58:17.076Z,68.50
2018-09-03T17:00:45.267Z,69.10
2018-09-03T17:03:13.542Z,68.30
2018-09-03T17:05:41.919Z,68.00
2018-09-03T17:08:10.306Z,75.10
2018-09-03T17:10:38.464Z,68.60
2018-09-03T17:13:06.856Z,69.10
2018-09-03T17:15:35.125Z,69.10
2018-09-03T17:18:03.302Z,69.50
2018-09-03T17:20:31.565Z,70.10
2018-09-03T17:22:59.696Z,71.00
2018-09-03T17:25:27.933Z,71.00
2018-09-03T17:27:56.187Z,71.30
2018-09-03T17:30:24.388Z,71.10
2018-09-03T17:32:52.603Z,71.30
2018-09-03T17:35:20.811Z,71.60
2018-09-03T17:37:49.090Z,71.70
2018-09-03T17:40:17.297Z,72.90
2018-09-03T17:42:45.527Z,73.10
2018-09-03T17:45:13.716Z,72.70
2018-09-03T17:47:41.898Z,73.40
2018-09-03T17:50:10.138Z,74.40
2018-09-03T17:52:38.324Z,75.20
2018-09-03T17:55:07.570Z,76.10
2018-09-03T17:57:36.908Z,76.60
2018-09-03T18:00:05.131Z,77.00
2018-09-03T18:02:33.401Z,77.30
2018-09-03T18:05:02.036Z,77.50
2018-09-03T18:07:30.259Z,77.90
2018-09-03T18:09:58.456Z,77.80
2018-09-03T18:12:26.962Z,78.20
2018-09-03T18:14:55.160Z,79.50
2018-09-03T18:17:23.336Z,80.20
2018-09-03T18:19:51.639Z,80.70
2018-09-03T18:22:19.911Z,81.20
2018-09-03T18:24:48.174Z,81.50
2018-09-03T18:27:16.367Z,81.10
2018-09-03T18:29:44.623Z,81.70
2018-09-03T18:32:12.904Z,82.60
2018-09-03T18:34:41.116Z,83.40
2018-09-03T18:37:09.355Z,83.80
2018-09-03T18:39:37.515Z,84.10
2018-09-03T18:42:05.939Z,84.60
2018-09-03T18:44:34.227Z,84.80
2018-09-03T18:47:02.440Z,85.20
2018-09-03T18:49:30.799Z,86.20
2018-09-03T18:51:59.020Z,85.90
2018-09-03T18:54:27.239Z,85.70
2018-09-03T18:56:55.415Z,86.00
2018-09-03T18:59:23.619Z,85.70
2018-09-03T19:01:51.899Z,85.60
2018-09-03T19:04:20.186Z,85.00
2018-09-03T19:06:48.446Z,85.00
2018-09-03T19:09:16.727Z,85.30
2018-09-03T19:11:47.343Z,85.60
2018-09-03T19:14:15.655Z,85.30
2018-09-03T19:16:43.843Z,85.70
2018-09-03T19:26:37.238Z,85.10
2018-09-03T19:29:05.434Z,85.80
2018-09-03T19:31:33.992Z,86.50
2018-09-03T19:34:02.330Z,85.70
2018-09-03T19:36:30.800Z,85.90
2018-09-03T19:39:00.356Z,86.50
2018-09-03T19:41:28.891Z,85.80
2018-09-03T19:43:57.474Z,86.50
2018-09-03T19:46:25.824Z,85.70
2018-09-03T19:48:54.366Z,85.00
2018-09-03T19:51:22.955Z,84.50
2018-09-03T19:53:51.518Z,84.50
2018-09-03T19:56:19.984Z,84.20
2018-09-03T20:01:17.567Z,84.10
2018-09-03T20:03:46.820Z,84.70
2018-09-03T20:06:15.285Z,84.60
2018-09-03T20:08:44.855Z,84.60
2018-09-03T20:11:13.467Z,84.70
2018-09-03T20:13:43.391Z,85.30
2018-09-03T20:17:15.226Z,85.10
2018-09-03T20:19:43.805Z,85.80
2018-09-03T20:22:17.388Z,85.80
2018-09-03T20:24:46.628Z,85.80
2018-09-03T20:27:16.491Z,85.90
2018-09-03T20:29:46.348Z,85.60
2018-09-03T20:34:45.432Z,85.80
2018-09-03T20:37:16.160Z,85.90
2018-09-03T20:39:45.883Z,86.50
2018-09-03T20:44:44.188Z,86.50
2018-09-03T20:47:13.549Z,86.40
2018-09-03T20:49:45.300Z,86.00
2018-09-03T20:52:14.112Z,85.50
2018-09-03T20:54:42.837Z,85.80
2018-09-03T20:59:40.619Z,87.00
2018-09-03T21:02:09.096Z,87.60
2018-09-03T21:04:37.834Z,87.50
2018-09-03T21:07:07.501Z,87.60
2018-09-03T21:09:37.459Z,87.20
2018-09-03T21:12:06.136Z,87.20
2018-09-03T21:14:35.023Z,87.50
2018-09-03T21:19:31.902Z,87.80
2018-09-03T21:22:00.684Z,87.90
2018-09-03T21:24:29.072Z,87.80
2018-09-03T21:29:27.555Z,88.20
2018-09-03T21:31:56.310Z,88.40
2018-09-03T21:34:25.079Z,88.70
2018-09-03T21:46:49.341Z,89.20
2018-09-03T21:49:17.944Z,88.80
2018-09-03T21:54:16.288Z,90.20
2018-09-03T21:56:45.319Z,89.60
2018-09-03T22:01:43.140Z,90.30
2018-09-03T22:06:40.752Z,90.20
2018-09-03T22:09:09.738Z,90.10
2018-09-03T22:14:06.729Z,90.20
2018-09-03T22:21:34.547Z,90.20
2018-09-03T22:24:04.951Z,90.60
2018-09-03T22:26:33.351Z,90.80
2018-09-03T22:29:04.338Z,90.90
2018-09-03T22:31:33.741Z,91.20
2018-09-03T22:34:03.243Z,91.40
2018-09-03T22:36:32.301Z,91.30
2018-09-03T22:39:01.618Z,91.10
2018-09-03T22:46:39.385Z,91.00
2018-09-03T22:54:04.711Z,90.80
2018-09-03T22:59:09.111Z,90.40
2018-09-03T23:01:40.228Z,90.70
2018-09-03T23:04:08.773Z,90.70
2018-09-03T23:06:37.245Z,90.50
2018-09-03T23:09:11.947Z,90.60
2018-09-03T23:14:13.389Z,90.90
2018-09-03T23:16:45.975Z,90.90
2018-09-03T23:21:46.820Z,90.90
2018-09-03T23:26:48.414Z,90.80
2018-09-03T23:29:20.593Z,90.60
2018-09-03T23:31:51.062Z,90.60
2018-09-03T23:34:23.365Z,90.90
2018-09-03T23:36:55.216Z,91.20
2018-09-03T23:39:24.047Z,91.60
2018-09-03T23:41:54.100Z,91.50
2018-09-03T23:44:26.725Z,91.60
2018-09-03T23:46:57.412Z,91.70
2018-09-03T23:49:26.872Z,91.80
2018-09-03T23:51:58.690Z,91.60
2018-09-03T23:54:27.500Z,91.80
2018-09-03T23:56:57.314Z,92.00
2018-09-03T23:59:28.641Z,92.40
